createdAt,value
2018-05-27T03:01:59.180Z,0.00
2018-05-27T03:02:59.303Z,0.00
2018-05-27T03:03:59.406Z,0.00
2018-05-27T03:04:59.542Z,0.00
2018-05-27T03:05:59.709Z,0.00
2018-05-27T03:06:59.928Z,0.00
2018-05-27T03:08:00.021Z,5.63
2018-05-27T03:09:00.303Z,5.63
2018-05-27T03:10:00.469Z,5.63
2018-05-27T03:11:00.569Z,5.63
2018-05-27T03:12:00.731Z,5.63
2018-05-27T03:13:00.868Z,5.63
2018-05-27T03:14:01.068Z,5.63
2018-05-27T03:15:01.291Z,5.63
2018-05-27T03:16:01.497Z,11.25
2018-05-27T03:17:01.571Z,11.25
2018-05-27T03:18:01.841Z,11.25
2018-05-27T03:19:02.025Z,11.25
2018-05-27T03:20:02.115Z,11.25
2018-05-27T03:21:02.265Z,11.25
2018-05-27T03:22:02.458Z,16.88
2018-05-27T03:23:02.599Z,16.88
2018-05-27T03:24:02.835Z,16.88
2018-05-27T03:25:03.084Z,16.88
2018-05-27T03:26:03.196Z,16.88
2018-05-27T03:27:03.357Z,22.50
2018-05-27T03:28:03.549Z,22.50
2018-05-27T03:29:03.632Z,22.50
2018-05-27T03:30:03.919Z,22.50
2018-05-27T03:31:04.078Z,28.13
2018-05-27T03:32:04.304Z,28.13
2018-05-27T03:33:04.419Z,28.13
2018-05-27T03:34:04.556Z,33.75
2018-05-27T03:35:04.732Z,33.75
2018-05-27T03:36:04.841Z,33.75
2018-05-27T03:37:05.077Z,39.38
2018-05-27T03:38:05.147Z,39.38
2018-05-27T03:39:05.393Z,39.38
2018-05-27T03:40:05.525Z,45.00
2018-05-27T03:41:05.748Z,45.00
2018-05-27T03:42:05.865Z,45.00
2018-05-27T03:43:06.016Z,45.00
2018-05-27T03:44:06.165Z,50.63
2018-05-27T03:45:06.393Z,50.63
2018-05-27T03:46:06.591Z,50.63
2018-05-27T03:47:06.716Z,56.25
2018-05-27T03:48:06.863Z,56.25
2018-05-27T03:49:07.069Z,56.25
2018-05-27T03:50:07.217Z,61.88
2018-05-27T03:51:07.384Z,61.88
2018-05-27T03:52:07.503Z,61.88
2018-05-27T03:53:07.693Z,67.50
2018-05-27T03:54:07.908Z,67.50
2018-05-27T03:55:08.042Z,67.50
2018-05-27T03:56:08.209Z,67.50
2018-05-27T03:57:08.323Z,73.13
2018-05-27T03:58:08.510Z,73.13
2018-05-27T03:59:08.691Z,73.13
2018-05-27T04:00:08.948Z,78.75
2018-05-27T04:01:09.083Z,78.75
2018-05-27T04:02:09.265Z,78.75
2018-05-27T04:03:09.417Z,84.38
2018-05-27T04:04:09.606Z,84.38
2018-05-27T04:05:09.706Z,84.38
2018-05-27T04:06:09.934Z,90.00
2018-05-27T04:07:10.108Z,90.00
2018-05-27T04:08:10.218Z,90.00
2018-05-27T04:09:10.365Z,95.63
2018-05-27T04:10:10.554Z,95.63
2018-05-27T04:11:10.803Z,101.25
2018-05-27T04:12:10.986Z,101.25
2018-05-27T04:13:11.101Z,101.25
2018-05-27T04:14:11.270Z,106.88
2018-05-27T04:15:11.496Z,106.88
2018-05-27T04:16:11.628Z,106.88
2018-05-27T04:17:11.769Z,112.50
2018-05-27T04:18:12.004Z,112.50
2018-05-27T04:19:12.153Z,118.13
2018-05-27T04:20:12.324Z,118.13
2018-05-27T04:21:12.497Z,118.13
2018-05-27T04:22:12.659Z,123.75
2018-05-27T04:23:12.781Z,123.75
2018-05-27T04:24:12.938Z,123.75
2018-05-27T04:25:13.114Z,123.75
2018-05-27T04:26:13.260Z,129.38
2018-05-27T04:27:13.474Z,129.38
2018-05-27T04:28:13.538Z,129.38
2018-05-27T04:29:13.700Z,135.00
2018-05-27T04:30:13.905Z,135.00
2018-05-27T04:31:14.161Z,135.00
2018-05-27T04:32:14.268Z,135.00
2018-05-27T04:33:14.496Z,140.63
2018-05-27T04:34:14.630Z,140.63
2018-05-27T04:35:14.796Z,140.63
2018-05-27T04:36:15.043Z,140.63
2018-05-27T04:37:15.225Z,146.25
2018-05-27T04:38:15.398Z,146.25
2018-05-27T04:39:15.606Z,146.25
2018-05-27T04:40:15.747Z,146.25
2018-05-27T04:41:15.912Z,146.25
2018-05-27T04:42:16.028Z,146.25
2018-05-27T04:43:16.251Z,151.88
2018-05-27T04:44:16.429Z,151.88
2018-05-27T04:45:16.514Z,151.88
2018-05-27T04:46:16.724Z,151.88
2018-05-27T04:47:16.864Z,151.88
2018-05-27T04:48:17.073Z,151.88
2018-05-27T04:49:17.308Z,151.88
2018-05-27T04:50:17.391Z,151.88
2018-05-27T04:51:17.631Z,151.88
2018-05-27T04:52:17.794Z,151.88
2018-05-27T04:53:17.955Z,157.50
2018-05-27T04:54:18.934Z,157.50
2018-05-27T04:55:18.203Z,157.50
2018-05-27T04:56:18.434Z,163.13
2018-05-27T04:57:18.690Z,163.13
2018-05-27T04:58:18.826Z,168.75
2018-05-27T04:59:18.878Z,168.75
2018-05-27T05:00:19.069Z,174.38
2018-05-27T05:01:19.266Z,180.00
2018-05-27T05:02:19.407Z,174.38
2018-05-27T05:03:19.511Z,180.00
2018-05-27T05:04:19.809Z,185.63
2018-05-27T05:05:19.925Z,185.63
2018-05-27T05:06:20.118Z,191.25
2018-05-27T05:07:20.260Z,191.25
2018-05-27T05:08:20.468Z,196.88
2018-05-27T05:09:20.558Z,202.50
2018-05-27T05:10:20.869Z,208.13
2018-05-27T05:11:20.977Z,213.75
2018-05-27T05:12:21.113Z,219.38
2018-05-27T05:13:21.264Z,219.38
2018-05-27T05:14:21.377Z,225.00
2018-05-27T05:15:21.571Z,230.63
2018-05-27T05:16:21.798Z,247.50
2018-05-27T05:17:21.983Z,258.75
2018-05-27T05:18:22.148Z,275.63
2018-05-27T05:19:22.281Z,292.50
2018-05-27T05:20:22.484Z,298.13
2018-05-27T05:21:22.639Z,309.38
2018-05-27T05:22:22.776Z,315.00
2018-05-27T05:23:23.017Z,315.00
2018-05-27T05:24:23.152Z,315.00
2018-05-27T05:25:23.356Z,292.50
2018-05-27T05:26:23.455Z,292.50
2018-05-27T05:27:23.620Z,292.50
2018-05-27T05:28:23.924Z,298.13
2018-05-27T05:29:24.005Z,298.13
2018-05-27T05:30:24.169Z,298.13
2018-05-27T05:31:24.318Z,298.13
2018-05-27T05:32:24.550Z,298.13
2018-05-27T05:33:24.759Z,298.13
2018-05-27T05:34:24.779Z,298.13
2018-05-27T05:35:24.948Z,303.75
2018-05-27T05:36:25.178Z,303.75
2018-05-27T05:37:25.346Z,309.38
2018-05-27T05:38:25.525Z,315.00
2018-05-27T05:39:25.687Z,320.63
2018-05-27T05:40:25.784Z,326.25
2018-05-27T05:41:26.006Z,337.50
2018-05-27T05:42:26.158Z,348.75
2018-05-27T05:43:26.315Z,371.25
2018-05-27T05:44:26.517Z,371.25
2018-05-27T05:45:26.625Z,393.75
2018-05-27T05:46:26.853Z,365.63
2018-05-27T05:47:27.101Z,365.63
2018-05-27T05:48:27.199Z,360.00
2018-05-27T05:49:27.443Z,348.75
2018-05-27T05:50:27.460Z,343.13
2018-05-27T05:51:27.670Z,343.13
2018-05-27T05:52:27.813Z,343.13
2018-05-27T05:53:28.011Z,343.13
2018-05-27T05:54:28.133Z,343.13
2018-05-27T05:55:28.358Z,343.13
2018-05-27T05:56:28.578Z,343.13
2018-05-27T05:57:28.707Z,343.13
2018-05-27T05:58:28.831Z,337.50
2018-05-27T05:59:28.996Z,343.13
2018-05-27T06:00:29.200Z,343.13
2018-05-27T06:01:29.374Z,348.75
2018-05-27T06:02:29.520Z,348.75
2018-05-27T06:03:29.743Z,354.38
2018-05-27T06:04:29.944Z,354.38
2018-05-27T06:05:30.076Z,360.00
2018-05-27T06:06:30.276Z,360.00
2018-05-27T06:07:30.521Z,354.38
2018-05-27T06:08:30.598Z,360.00
2018-05-27T06:09:31.022Z,360.00
2018-05-27T06:10:30.935Z,365.63
2018-05-27T06:11:31.090Z,365.63
2018-05-27T06:12:31.272Z,376.88
2018-05-27T06:13:31.461Z,410.63
2018-05-27T06:14:31.636Z,399.38
2018-05-27T06:15:31.803Z,399.38
2018-05-27T06:16:31.965Z,405.00
2018-05-27T06:17:32.154Z,438.75
2018-05-27T06:18:32.362Z,444.38
2018-05-27T06:19:32.518Z,405.00
2018-05-27T06:20:32.738Z,405.00
2018-05-27T06:21:32.828Z,399.38
2018-05-27T06:22:32.967Z,405.00
2018-05-27T06:23:33.160Z,410.63
2018-05-27T06:24:33.327Z,399.38
2018-05-27T06:25:33.561Z,399.38
2018-05-27T06:26:33.696Z,399.38
2018-05-27T06:27:33.893Z,393.75
2018-05-27T06:28:34.074Z,399.38
2018-05-27T06:29:34.286Z,399.38
2018-05-27T06:30:34.437Z,399.38
2018-05-27T06:31:34.564Z,466.88
2018-05-27T06:32:34.742Z,472.50
2018-05-27T06:33:34.981Z,478.13
2018-05-27T06:34:35.079Z,483.75
2018-05-27T06:35:35.206Z,450.00
2018-05-27T06:36:35.421Z,489.38
2018-05-27T06:37:35.559Z,438.75
2018-05-27T06:38:35.781Z,517.50
2018-05-27T06:39:35.973Z,523.13
2018-05-27T06:40:36.134Z,528.75
2018-05-27T06:41:36.317Z,528.75
2018-05-27T06:42:36.430Z,523.13
2018-05-27T06:43:36.597Z,523.13
2018-05-27T06:44:36.864Z,511.88
2018-05-27T06:45:37.003Z,517.50
2018-05-27T06:46:37.180Z,523.13
2018-05-27T06:47:37.314Z,517.50
2018-05-27T06:48:37.558Z,517.50
2018-05-27T06:49:37.697Z,517.50
2018-05-27T06:50:37.955Z,517.50
2018-05-27T06:51:38.065Z,495.00
2018-05-27T06:52:38.256Z,444.38
2018-05-27T06:53:38.443Z,427.50
2018-05-27T06:54:38.578Z,427.50
2018-05-27T06:55:38.764Z,455.63
2018-05-27T06:56:38.883Z,461.25
2018-05-27T06:57:39.035Z,450.00
2018-05-27T06:58:39.232Z,444.38
2018-05-27T06:59:39.357Z,466.88
2018-05-27T07:00:39.535Z,489.38
2018-05-27T07:01:39.742Z,478.13
2018-05-27T07:02:39.910Z,495.00
2018-05-27T07:03:40.062Z,500.63
2018-05-27T07:04:40.286Z,495.00
2018-05-27T07:05:40.427Z,495.00
2018-05-27T07:06:40.525Z,506.25
2018-05-27T07:07:40.751Z,506.25
2018-05-27T07:08:40.860Z,500.63
2018-05-27T07:09:41.053Z,506.25
2018-05-27T07:10:41.171Z,511.88
2018-05-27T07:11:41.392Z,511.88
2018-05-27T07:12:41.502Z,511.88
2018-05-27T07:13:41.664Z,517.50
2018-05-27T07:14:41.873Z,523.13
2018-05-27T07:15:42.038Z,528.75
2018-05-27T07:16:42.202Z,551.25
2018-05-27T07:17:42.344Z,551.25
2018-05-27T07:18:42.536Z,540.00
2018-05-27T07:19:42.744Z,556.88
2018-05-27T07:20:42.860Z,568.13
2018-05-27T07:21:43.055Z,568.13
2018-05-27T07:22:43.236Z,579.38
2018-05-27T07:23:43.366Z,596.25
2018-05-27T07:24:43.573Z,590.63
2018-05-27T07:25:43.786Z,596.25
2018-05-27T07:26:43.909Z,596.25
2018-05-27T07:27:44.104Z,601.88
2018-05-27T07:28:44.263Z,601.88
2018-05-27T07:29:44.412Z,601.88
2018-05-27T07:30:44.580Z,607.50
2018-05-27T07:31:44.743Z,607.50
2018-05-27T07:32:44.895Z,601.88
2018-05-27T07:33:45.075Z,618.75
2018-05-27T07:34:45.236Z,624.38
2018-05-27T07:35:45.393Z,618.75
2018-05-27T07:36:45.600Z,630.00
2018-05-27T07:37:45.724Z,596.25
2018-05-27T07:38:45.937Z,624.38
2018-05-27T07:39:46.068Z,613.13
2018-05-27T07:40:46.281Z,630.00
2018-05-27T07:41:46.471Z,663.75
2018-05-27T07:42:46.672Z,675.00
2018-05-27T07:43:46.793Z,675.00
2018-05-27T07:44:46.914Z,686.25
2018-05-27T07:45:47.109Z,708.75
2018-05-27T07:46:47.293Z,714.38
2018-05-27T07:47:47.509Z,691.88
2018-05-27T07:48:47.625Z,708.75
2018-05-27T07:49:47.771Z,720.00
2018-05-27T07:50:47.989Z,736.88
2018-05-27T07:51:48.102Z,759.38
2018-05-27T07:52:48.274Z,781.88
2018-05-27T07:53:48.573Z,787.50
2018-05-27T07:54:48.641Z,832.50
2018-05-27T07:55:48.839Z,826.88
2018-05-27T07:56:48.977Z,838.13
2018-05-27T07:57:49.125Z,866.25
2018-05-27T07:58:49.337Z,871.88
2018-05-27T07:59:49.458Z,900.00
2018-05-27T08:00:49.640Z,911.25
2018-05-27T08:01:49.825Z,933.75
2018-05-27T08:02:50.012Z,950.63
2018-05-27T08:03:50.147Z,916.88
2018-05-27T08:04:50.297Z,905.63
2018-05-27T08:05:50.440Z,877.50
2018-05-27T08:06:50.676Z,843.75
2018-05-27T08:07:50.832Z,810.00
2018-05-27T08:08:50.978Z,776.25
2018-05-27T08:09:51.158Z,759.38
2018-05-27T08:10:51.321Z,725.63
2018-05-27T08:11:51.483Z,691.88
2018-05-27T08:12:51.738Z,675.00
2018-05-27T08:13:51.817Z,675.00
2018-05-27T08:14:52.011Z,680.63
2018-05-27T08:15:52.129Z,686.25
2018-05-27T08:16:52.334Z,697.50
2018-05-27T08:17:52.526Z,703.13
2018-05-27T08:18:52.703Z,708.75
2018-05-27T08:19:52.830Z,725.63
2018-05-27T08:20:52.987Z,736.88
2018-05-27T08:21:53.188Z,748.13
2018-05-27T08:22:53.342Z,759.38
2018-05-27T08:23:53.501Z,770.63
2018-05-27T08:24:53.750Z,770.63
2018-05-27T08:25:53.844Z,765.00
2018-05-27T08:26:54.084Z,759.38
2018-05-27T08:27:54.196Z,765.00
2018-05-27T08:28:54.438Z,765.00
2018-05-27T08:29:54.549Z,765.00
2018-05-27T08:30:54.717Z,765.00
2018-05-27T08:31:54.926Z,759.38
2018-05-27T08:32:55.046Z,759.38
2018-05-27T08:33:55.223Z,753.75
2018-05-27T08:34:55.428Z,759.38
2018-05-27T08:35:55.565Z,748.13
2018-05-27T08:36:55.760Z,748.13
2018-05-27T08:37:55.942Z,759.38
2018-05-27T08:38:56.068Z,776.25
2018-05-27T08:39:56.218Z,781.88
2018-05-27T08:40:56.397Z,793.13
2018-05-27T08:41:56.560Z,810.00
2018-05-27T08:42:56.704Z,826.88
2018-05-27T08:43:56.939Z,838.13
2018-05-27T08:44:57.056Z,849.38
2018-05-27T08:45:57.252Z,866.25
2018-05-27T08:46:57.427Z,883.13
2018-05-27T08:47:57.595Z,888.75
2018-05-27T08:48:57.774Z,883.13
2018-05-27T08:49:57.953Z,877.50
2018-05-27T08:50:58.097Z,871.88
2018-05-27T08:51:58.275Z,877.50
2018-05-27T08:52:58.427Z,883.13
2018-05-27T08:53:58.575Z,894.38
2018-05-27T08:54:58.822Z,888.75
2018-05-27T08:55:58.932Z,883.13
2018-05-27T08:56:59.135Z,888.75
2018-05-27T08:57:59.282Z,911.25
2018-05-27T08:58:59.565Z,916.88
2018-05-27T08:59:59.692Z,933.75
2018-05-27T09:00:59.861Z,911.25
2018-05-27T09:01:59.999Z,933.75
2018-05-27T09:03:00.214Z,894.38
2018-05-27T09:04:00.360Z,905.63
2018-05-27T09:05:00.487Z,860.63
2018-05-27T09:06:00.673Z,871.88
2018-05-27T09:07:00.856Z,849.38
2018-05-27T09:08:01.094Z,804.38
2018-05-27T09:09:01.241Z,871.88
2018-05-27T09:10:01.377Z,838.13
2018-05-27T09:11:01.542Z,843.75
2018-05-27T09:12:01.712Z,883.13
2018-05-27T09:13:01.890Z,871.88
2018-05-27T09:14:02.020Z,883.13
2018-05-27T09:15:02.220Z,883.13
2018-05-27T09:16:02.386Z,877.50
2018-05-27T09:17:02.583Z,860.63
2018-05-27T09:18:02.751Z,849.38
2018-05-27T09:19:02.939Z,871.88
2018-05-27T09:20:03.083Z,871.88
2018-05-27T09:21:03.292Z,866.25
2018-05-27T09:22:03.716Z,871.88
2018-05-27T09:23:03.657Z,871.88
2018-05-27T09:24:03.804Z,860.63
2018-05-27T09:25:04.021Z,866.25
2018-05-27T09:26:05.006Z,911.25
2018-05-27T09:27:04.291Z,911.25
2018-05-27T09:28:04.466Z,922.50
2018-05-27T09:29:04.635Z,916.88
2018-05-27T09:30:04.826Z,922.50
2018-05-27T09:31:04.989Z,928.13
2018-05-27T09:32:05.240Z,928.13
2018-05-27T09:33:05.365Z,933.75
2018-05-27T09:34:05.530Z,945.00
2018-05-27T09:35:05.792Z,950.63
2018-05-27T09:36:05.915Z,956.25
2018-05-27T09:37:06.103Z,956.25
2018-05-27T09:38:06.254Z,961.88
2018-05-27T09:39:06.422Z,967.50
2018-05-27T09:40:06.587Z,978.75
2018-05-27T09:41:06.769Z,978.75
2018-05-27T09:42:06.902Z,967.50
2018-05-27T09:43:07.205Z,973.13
2018-05-27T09:44:07.266Z,973.13
2018-05-27T09:45:07.493Z,967.50
2018-05-27T09:46:07.576Z,945.00
2018-05-27T09:47:07.721Z,945.00
2018-05-27T09:48:07.957Z,945.00
2018-05-27T09:49:08.133Z,1085.63
2018-05-27T09:50:08.409Z,1327.50
2018-05-27T09:51:08.744Z,1698.75
2018-05-27T09:52:08.620Z,2120.63
2018-05-27T09:53:08.974Z,2317.50
2018-05-27T09:54:09.043Z,2334.38
2018-05-27T09:55:09.208Z,2368.13
2018-05-27T09:56:09.457Z,2390.63
2018-05-27T09:57:09.584Z,2368.13
2018-05-27T09:58:09.782Z,2401.88
2018-05-27T09:59:09.842Z,2441.25
2018-05-27T10:00:10.045Z,2396.25
2018-05-27T10:01:10.273Z,2458.13
2018-05-27T10:02:10.388Z,2458.13
2018-05-27T10:03:10.731Z,2480.63
2018-05-27T10:04:10.732Z,2430.00
2018-05-27T10:05:11.429Z,2216.25
2018-05-27T10:06:11.131Z,2497.50
2018-05-27T10:07:11.363Z,2587.50
2018-05-27T10:08:11.487Z,2632.50
2018-05-27T10:09:11.669Z,2626.88
2018-05-27T10:10:11.847Z,2649.38
2018-05-27T10:11:11.988Z,2514.38
2018-05-27T10:12:12.187Z,1968.75
2018-05-27T10:13:12.374Z,2581.88
2018-05-27T10:14:12.581Z,2610.00
2018-05-27T10:15:12.746Z,2570.63
2018-05-27T10:16:12.904Z,2548.13
2018-05-27T10:17:13.128Z,1760.63
2018-05-27T10:18:13.230Z,2435.63
2018-05-27T10:19:13.435Z,2300.63
2018-05-27T10:20:13.577Z,2328.75
2018-05-27T10:21:13.814Z,2604.38
2018-05-27T10:22:13.999Z,2677.50
2018-05-27T10:23:14.117Z,2694.38
2018-05-27T10:24:14.283Z,2683.13
2018-05-27T10:25:14.460Z,2688.75
2018-05-27T10:26:14.675Z,2694.38
2018-05-27T10:27:14.833Z,2728.13
2018-05-27T10:28:14.988Z,2728.13
2018-05-27T10:29:15.147Z,2700.00
2018-05-27T10:30:15.339Z,2671.88
2018-05-27T10:31:15.533Z,2711.25
2018-05-27T10:32:15.663Z,2728.13
2018-05-27T10:33:15.835Z,2750.63
2018-05-27T10:34:16.064Z,2829.38
2018-05-27T10:35:16.189Z,2823.75
2018-05-27T10:36:16.412Z,2840.63
2018-05-27T10:37:16.558Z,2857.50
2018-05-27T10:38:16.715Z,2818.13
2018-05-27T10:39:16.959Z,2896.88
2018-05-27T10:40:17.104Z,2874.38
2018-05-27T10:41:17.294Z,2891.25
2018-05-27T10:42:17.496Z,2891.25
2018-05-27T10:43:17.629Z,2880.00
2018-05-27T10:44:17.794Z,2930.63
2018-05-27T10:45:18.035Z,2986.88
2018-05-27T10:46:18.153Z,2981.25
2018-05-27T10:47:18.311Z,2992.50
2018-05-27T10:48:18.553Z,2981.25
2018-05-27T10:49:18.646Z,2801.25
2018-05-27T10:50:18.902Z,2452.50
2018-05-27T10:51:19.057Z,2745.00
2018-05-27T10:52:19.281Z,2615.63
2018-05-27T10:53:19.366Z,2975.63
2018-05-27T10:54:19.546Z,3026.25
2018-05-27T10:55:19.775Z,3099.38
2018-05-27T10:56:19.973Z,3144.38
2018-05-27T10:57:20.105Z,3161.25
2018-05-27T10:58:20.254Z,3099.38
2018-05-27T10:59:20.419Z,3183.75
2018-05-27T11:00:20.599Z,3138.75
2018-05-27T11:01:20.791Z,3206.25
2018-05-27T11:02:21.023Z,3200.63
2018-05-27T11:03:21.209Z,3279.38
2018-05-27T11:04:21.394Z,3240.00
2018-05-27T11:05:21.563Z,3206.25
2018-05-27T11:06:21.685Z,3138.75
2018-05-27T11:07:22.307Z,3178.13
2018-05-27T11:08:22.031Z,3256.88
2018-05-27T11:09:22.169Z,3307.50
2018-05-27T11:10:22.397Z,3296.25
2018-05-27T11:11:22.618Z,3296.25
2018-05-27T11:12:22.775Z,3285.00
2018-05-27T11:13:22.944Z,3296.25
2018-05-27T11:14:23.192Z,3296.25
2018-05-27T11:15:23.385Z,3301.88
2018-05-27T11:16:23.482Z,3313.13
2018-05-27T11:17:23.736Z,3330.00
2018-05-27T11:18:23.963Z,3335.63
2018-05-27T11:19:24.098Z,3335.63
2018-05-27T11:20:24.287Z,3335.63
2018-05-27T11:21:24.434Z,3346.88
2018-05-27T11:22:24.585Z,3346.88
2018-05-27T11:23:24.726Z,3341.25
2018-05-27T11:24:24.893Z,3346.88
2018-05-27T11:25:25.131Z,3397.50
2018-05-27T11:26:25.276Z,3403.13
2018-05-27T11:27:25.485Z,3425.63
2018-05-27T11:28:25.615Z,3448.13
2018-05-27T11:29:25.817Z,3470.63
2018-05-27T11:30:25.995Z,3487.50
2018-05-27T11:31:26.164Z,3481.88
2018-05-27T11:32:26.392Z,3487.50
2018-05-27T11:33:26.583Z,3487.50
2018-05-27T11:34:26.715Z,3498.75
2018-05-27T11:35:26.916Z,3526.88
2018-05-27T11:36:27.118Z,3515.63
2018-05-27T11:37:27.254Z,3493.13
2018-05-27T11:38:27.419Z,3515.63
2018-05-27T11:39:27.603Z,3560.63
2018-05-27T11:40:27.776Z,3577.50
2018-05-27T11:41:27.901Z,3583.13
2018-05-27T11:42:28.156Z,3594.38
2018-05-27T11:43:28.301Z,3616.88
2018-05-27T11:44:28.517Z,3656.25
2018-05-27T11:45:28.740Z,3667.50
2018-05-27T11:46:28.852Z,3661.88
2018-05-27T11:47:29.146Z,3645.00
2018-05-27T11:48:29.220Z,3650.63
2018-05-27T11:49:29.464Z,3656.25
2018-05-27T11:50:29.638Z,3673.13
2018-05-27T11:51:29.747Z,3673.13
2018-05-27T11:52:29.920Z,3673.13
2018-05-27T11:53:30.206Z,3673.13
2018-05-27T11:54:30.332Z,3678.75
2018-05-27T11:55:30.477Z,3690.00
2018-05-27T11:56:30.647Z,3712.50
2018-05-27T11:57:30.868Z,3706.88
2018-05-27T11:58:31.067Z,3740.63
2018-05-27T11:59:31.193Z,3723.75
2018-05-27T12:00:31.526Z,3690.00
2018-05-27T12:01:31.592Z,3678.75
2018-05-27T12:02:31.731Z,3645.00
2018-05-27T12:03:31.933Z,3661.88
2018-05-27T12:04:32.092Z,3566.25
2018-05-27T12:05:32.318Z,3555.00
2018-05-27T12:06:32.431Z,3549.38
2018-05-27T12:07:32.677Z,2233.13
2018-05-27T12:08:32.792Z,3746.25
2018-05-27T12:09:33.176Z,3189.38
2018-05-27T12:10:33.209Z,2148.75
2018-05-27T12:11:33.424Z,1485.00
2018-05-27T12:12:33.523Z,2148.75
2018-05-27T12:13:33.779Z,2677.50
2018-05-27T12:14:33.890Z,2497.50
2018-05-27T12:15:34.059Z,2570.63
2018-05-27T12:16:34.248Z,2514.38
2018-05-27T12:17:34.397Z,2143.13
2018-05-27T12:18:34.581Z,4061.25
2018-05-27T12:19:34.808Z,4027.50
2018-05-27T12:20:34.953Z,2531.25
2018-05-27T12:21:35.132Z,2340.00
2018-05-27T12:22:35.339Z,1186.88
2018-05-27T12:23:35.470Z,1198.13
2018-05-27T12:24:35.732Z,1209.38
2018-05-27T12:25:35.880Z,1243.13
2018-05-27T12:26:36.062Z,1406.25
2018-05-27T12:27:36.204Z,1726.88
2018-05-27T12:28:36.347Z,3144.38
2018-05-27T12:29:36.618Z,3645.00
2018-05-27T12:30:36.763Z,3178.13
2018-05-27T12:31:36.970Z,4162.50
2018-05-27T12:32:37.071Z,4162.50
2018-05-27T12:33:37.277Z,3504.38
2018-05-27T12:34:37.505Z,4145.63
2018-05-27T12:35:37.668Z,3307.50
2018-05-27T12:36:37.868Z,3706.88
2018-05-27T12:37:37.977Z,1445.63
2018-05-27T12:38:38.146Z,3189.38
2018-05-27T12:39:38.387Z,1215.00
2018-05-27T12:40:38.513Z,1080.00
2018-05-27T12:41:38.724Z,2165.63
2018-05-27T12:42:38.920Z,3729.38
2018-05-27T12:43:39.085Z,3656.25
2018-05-27T12:44:39.240Z,1198.13
2018-05-27T12:45:39.416Z,1473.75
2018-05-27T12:46:39.560Z,956.25
2018-05-27T12:47:39.772Z,888.75
2018-05-27T12:48:40.008Z,866.25
2018-05-27T12:49:40.113Z,843.75
2018-05-27T12:50:40.376Z,900.00
2018-05-27T12:51:40.513Z,1108.13
2018-05-27T12:52:40.690Z,1828.13
2018-05-27T12:53:40.792Z,3802.50
2018-05-27T12:54:40.985Z,1614.38
2018-05-27T12:55:41.170Z,3712.50
2018-05-27T12:56:41.410Z,843.75
2018-05-27T12:57:41.548Z,748.13
2018-05-27T12:58:41.732Z,708.75
2018-05-27T12:59:41.859Z,703.13
2018-05-27T13:00:42.123Z,720.00
2018-05-27T13:01:42.285Z,753.75
2018-05-27T13:02:42.372Z,787.50
2018-05-27T13:03:42.559Z,793.13
2018-05-27T13:04:42.775Z,838.13
2018-05-27T13:05:43.002Z,905.63
2018-05-27T13:06:43.099Z,945.00
2018-05-27T13:07:43.332Z,1046.25
2018-05-27T13:08:43.457Z,4128.75
2018-05-27T13:09:43.639Z,4179.38
2018-05-27T13:10:43.849Z,4218.75
2018-05-27T13:11:43.974Z,4021.88
2018-05-27T13:12:44.171Z,2373.75
2018-05-27T13:13:44.347Z,3915.00
2018-05-27T13:14:44.565Z,1018.13
2018-05-27T13:15:44.696Z,990.00
2018-05-27T13:16:44.959Z,1040.63
2018-05-27T13:17:45.015Z,3301.88
2018-05-27T13:18:45.225Z,3740.63
2018-05-27T13:19:45.390Z,3729.38
2018-05-27T13:20:45.555Z,990.00
2018-05-27T13:21:45.791Z,888.75
2018-05-27T13:22:45.903Z,832.50
2018-05-27T13:23:46.114Z,821.25
2018-05-27T13:24:46.320Z,815.63
2018-05-27T13:25:46.456Z,956.25
2018-05-27T13:26:46.616Z,956.25
2018-05-27T13:27:46.873Z,978.75
2018-05-27T13:28:47.005Z,1586.25
2018-05-27T13:29:47.197Z,1873.13
2018-05-27T13:30:47.349Z,843.75
2018-05-27T13:31:47.556Z,793.13
2018-05-27T13:32:47.687Z,776.25
2018-05-27T13:33:47.874Z,826.88
2018-05-27T13:34:48.070Z,1215.00
2018-05-27T13:35:48.275Z,1338.75
2018-05-27T13:36:48.438Z,1698.75
2018-05-27T13:37:48.564Z,956.25
2018-05-27T13:38:48.747Z,945.00
2018-05-27T13:39:48.894Z,1012.50
2018-05-27T13:40:49.189Z,1046.25
2018-05-27T13:41:49.237Z,1057.50
2018-05-27T13:42:49.430Z,1068.75
2018-05-27T13:43:49.586Z,1029.38
2018-05-27T13:44:49.875Z,1006.88
2018-05-27T13:45:49.925Z,1096.88
2018-05-27T13:46:50.204Z,1428.75
2018-05-27T13:47:50.387Z,1473.75
2018-05-27T13:48:50.452Z,1501.88
2018-05-27T13:49:50.638Z,1406.25
2018-05-27T13:50:50.797Z,1428.75
2018-05-27T13:51:51.001Z,1614.38
2018-05-27T13:52:51.199Z,1501.88
2018-05-27T13:53:51.372Z,1271.25
2018-05-27T13:54:51.517Z,1113.75
2018-05-27T13:55:51.659Z,1035.00
2018-05-27T13:56:51.860Z,990.00
2018-05-27T13:57:52.030Z,984.38
2018-05-27T13:58:52.199Z,978.75
2018-05-27T13:59:52.486Z,995.63
2018-05-27T14:00:52.520Z,1018.13
2018-05-27T14:01:52.732Z,1051.88
2018-05-27T14:02:52.918Z,1080.00
2018-05-27T14:03:53.026Z,1141.88
2018-05-27T14:04:53.228Z,1164.38
2018-05-27T14:05:53.369Z,1215.00
2018-05-27T14:06:53.536Z,1231.88
2018-05-27T14:07:53.787Z,1282.50
2018-05-27T14:08:53.962Z,1316.25
2018-05-27T14:09:54.166Z,1355.63
2018-05-27T14:10:54.298Z,1395.00
2018-05-27T14:11:54.456Z,1411.88
2018-05-27T14:12:54.659Z,1423.13
2018-05-27T14:13:54.820Z,1411.88
2018-05-27T14:14:54.973Z,1445.63
2018-05-27T14:15:55.230Z,1456.88
2018-05-27T14:16:55.501Z,1473.75
2018-05-27T14:17:55.564Z,1485.00
2018-05-27T14:18:55.695Z,1456.88
2018-05-27T14:19:55.815Z,1434.38
2018-05-27T14:20:56.017Z,1383.75
2018-05-27T14:21:56.169Z,1271.25
2018-05-27T14:22:56.415Z,1400.63
2018-05-27T14:23:56.591Z,1552.50
2018-05-27T14:24:56.750Z,1631.25
2018-05-27T14:25:56.989Z,1625.63
2018-05-27T14:26:57.086Z,1389.38
2018-05-27T14:27:57.270Z,1243.13
2018-05-27T14:28:57.497Z,1192.50
2018-05-27T14:29:57.674Z,1524.38
2018-05-27T14:30:57.762Z,1327.50
2018-05-27T14:31:57.941Z,1473.75
2018-05-27T14:32:58.095Z,1473.75
2018-05-27T14:33:58.385Z,1524.38
2018-05-27T14:34:58.467Z,1541.25
2018-05-27T14:35:58.578Z,1535.63
2018-05-27T14:36:58.803Z,1473.75
2018-05-27T14:37:58.909Z,1513.13
2018-05-27T14:38:59.105Z,1524.38
2018-05-27T14:39:59.316Z,1406.25
2018-05-27T14:40:59.478Z,1063.13
2018-05-27T14:41:59.673Z,1091.25
2018-05-27T14:42:59.831Z,1012.50
2018-05-27T14:43:59.942Z,911.25
2018-05-27T14:45:00.212Z,832.50
2018-05-27T14:46:00.388Z,765.00
2018-05-27T14:47:00.541Z,720.00
2018-05-27T14:48:00.760Z,680.63
2018-05-27T14:49:00.825Z,646.88
2018-05-27T14:50:00.999Z,635.63
2018-05-27T14:51:01.220Z,596.25
2018-05-27T14:52:01.420Z,573.75
2018-05-27T14:53:01.604Z,556.88
2018-05-27T14:54:01.678Z,568.13
2018-05-27T14:55:01.870Z,579.38
2018-05-27T14:56:02.086Z,579.38
2018-05-27T14:57:02.255Z,540.00
2018-05-27T14:58:02.423Z,461.25
2018-05-27T14:59:02.570Z,399.38
2018-05-27T15:00:02.822Z,360.00
2018-05-27T15:01:02.926Z,315.00
2018-05-27T15:02:03.061Z,275.63
2018-05-27T15:03:03.264Z,247.50
2018-05-27T15:04:03.521Z,225.00
2018-05-27T15:05:03.669Z,202.50
2018-05-27T15:06:03.920Z,191.25
2018-05-27T15:07:03.984Z,191.25
2018-05-27T15:08:04.120Z,185.63
2018-05-27T15:09:04.477Z,180.00
2018-05-27T15:10:04.437Z,174.38
2018-05-27T15:11:04.717Z,163.13
2018-05-27T15:12:04.890Z,151.88
2018-05-27T15:13:04.888Z,135.00
2018-05-27T15:14:05.076Z,118.13
2018-05-27T15:15:05.271Z,101.25
2018-05-27T15:16:05.432Z,90.00
2018-05-27T15:17:05.754Z,78.75
2018-05-27T15:18:05.933Z,73.13
2018-05-27T15:19:06.124Z,67.50
2018-05-27T15:20:06.330Z,67.50
2018-05-27T15:21:06.768Z,67.50
2018-05-27T15:22:06.619Z,67.50
2018-05-27T15:23:06.790Z,73.13
2018-05-27T15:24:07.038Z,84.38
2018-05-27T15:25:08.482Z,101.25
2018-05-27T15:26:07.306Z,129.38
2018-05-27T15:27:07.572Z,163.13